Manea, United Kingdom
Current Conditions -  °F | °C
As of 12:58 AM on Monday 24 Nov 2014 (Local Time) from EGUN Reporting Station
Clear Clear  
Wind Chill: 31°   Ceiling: Unl
Heat Index: 35°   Visibility: 6mi
Dew Point: 34°   Wind: 5mph
Humidity: 96%   Direction: 240°WSW
Pressure: 30.17"   Gusts: NA
Location:  52.48°N, 0.18°E
Report Text: EGUN 240058Z AUTO 24004KT 9999 CLR 02/01 A3017 RMK AO2 SLP220 T00160010
Loading
Personal Weather Stations






























Interactive Weather Map New forecast layout! Learn more

10-Day Weather Forecast

Advertisements
Track Severe Weather on mobile